createdAt,value
2022-09-27T00:02:17.593Z,98823.34
2022-09-27T00:04:49.968Z,98824.15
2022-09-27T00:07:21.811Z,98821.02
2022-09-27T00:09:53.733Z,98820.73
2022-09-27T00:12:25.723Z,98819.56
2022-09-27T00:14:57.590Z,98822.40
2022-09-27T00:17:29.757Z,98821.77
2022-09-27T00:20:03.910Z,98812.17
2022-09-27T00:22:36.267Z,98810.07
2022-09-27T00:25:10.503Z,98808.15
2022-09-27T00:27:42.526Z,98802.60
2022-09-27T00:30:15.957Z,98798.63
2022-09-27T00:32:47.810Z,98801.42
2022-09-27T00:35:20.197Z,98801.59
2022-09-27T00:37:52.557Z,98800.72
2022-09-27T00:40:25.213Z,98797.60
2022-09-27T00:42:57.174Z,98790.30
2022-09-27T00:45:29.181Z,98787.19
2022-09-27T00:48:06.624Z,98781.80
2022-09-27T00:50:42.119Z,98778.60
2022-09-27T00:53:19.295Z,98776.54
2022-09-27T00:55:55.109Z,98780.48
2022-09-27T00:58:31.888Z,98777.14
2022-09-27T01:01:07.720Z,98769.36
2022-09-27T01:03:45.415Z,98764.06
2022-09-27T01:06:18.203Z,98763.66
2022-09-27T01:08:50.377Z,98766.07
2022-09-27T01:11:37.067Z,98766.91
2022-09-27T01:14:27.060Z,98769.09
2022-09-27T01:17:08.575Z,98770.74
2022-09-27T01:20:15.636Z,98766.87
2022-09-27T01:23:00.419Z,98763.01
2022-09-27T01:25:52.656Z,98762.73
2022-09-27T01:28:36.722Z,98759.30
2022-09-27T01:31:17.787Z,98761.85
2022-09-27T01:33:58.772Z,98764.25
2022-09-27T01:36:39.740Z,98767.95
2022-09-27T01:39:30.071Z,98760.70
2022-09-27T01:42:32.547Z,98759.25
2022-09-27T01:45:10.905Z,98756.40
2022-09-27T01:47:56.363Z,98755.77
2022-09-27T01:50:51.181Z,98749.60
2022-09-27T01:53:27.916Z,98751.54
2022-09-27T01:56:26.029Z,98751.31
2022-09-27T01:59:07.740Z,98748.79
2022-09-27T02:01:42.921Z,98748.14
2022-09-27T02:04:18.802Z,98745.95
2022-09-27T02:07:22.104Z,98742.02
2022-09-27T02:09:58.342Z,98744.83
2022-09-27T02:12:43.203Z,98739.55
2022-09-27T02:15:17.501Z,98740.25
2022-09-27T02:17:59.685Z,98735.83
2022-09-27T02:20:32.776Z,98726.15
2022-09-27T02:23:15.303Z,98728.81
2022-09-27T02:25:57.527Z,98728.69
2022-09-27T02:28:34.819Z,98729.60
2022-09-27T02:31:07.269Z,98730.33
2022-09-27T02:33:46.663Z,98731.25
2022-09-27T02:36:19.614Z,98727.64
2022-09-27T02:38:52.388Z,98724.55
2022-09-27T02:41:25.829Z,98721.98
2022-09-27T02:44:01.173Z,98722.02
2022-09-27T02:46:49.488Z,98718.79
2022-09-27T02:49:40.432Z,98721.11
2022-09-27T02:52:32.599Z,98717.00
2022-09-27T02:55:13.504Z,98709.99
2022-09-27T02:58:11.576Z,98708.02
2022-09-27T03:01:06.011Z,98713.95
2022-09-27T03:04:06.443Z,98712.29
2022-09-27T03:06:40.894Z,98707.35
2022-09-27T03:09:20.890Z,98708.23
2022-09-27T03:11:53.425Z,98708.02
2022-09-27T03:14:25.524Z,98709.99
2022-09-27T03:17:06.809Z,98711.55
2022-09-27T03:20:03.269Z,98707.86
2022-09-27T03:23:04.489Z,98713.90
2022-09-27T03:25:36.802Z,98711.77
2022-09-27T03:28:09.390Z,98713.76
2022-09-27T03:30:42.264Z,98711.63
2022-09-27T03:33:17.878Z,98707.47
2022-09-27T03:36:02.937Z,98701.42
2022-09-27T03:38:35.241Z,98695.80
2022-09-27T03:41:07.540Z,98689.73
2022-09-27T03:43:39.415Z,98683.89
2022-09-27T03:46:12.228Z,98684.95
2022-09-27T03:48:44.597Z,98685.67
2022-09-27T03:51:16.638Z,98683.14
2022-09-27T03:53:49.275Z,98680.59
2022-09-27T03:56:21.240Z,98682.86
2022-09-27T03:58:53.124Z,98681.89
2022-09-27T04:01:26.290Z,98680.23
2022-09-27T04:03:58.759Z,98677.02
2022-09-27T04:06:35.945Z,98671.16
2022-09-27T04:09:08.757Z,98668.11
2022-09-27T04:11:58.459Z,98668.96
2022-09-27T04:14:30.393Z,98668.13
2022-09-27T04:17:21.445Z,98667.27
2022-09-27T04:20:12.920Z,98665.00
2022-09-27T04:22:48.247Z,98663.38
2022-09-27T04:25:20.802Z,98665.97
2022-09-27T04:27:54.943Z,98666.14
2022-09-27T04:30:27.510Z,98661.49
2022-09-27T04:33:17.892Z,98661.17
2022-09-27T04:36:07.826Z,98658.13
2022-09-27T04:38:41.861Z,98666.45
2022-09-27T04:41:15.349Z,98663.69
2022-09-27T04:43:47.238Z,98661.61
2022-09-27T04:46:19.191Z,98660.19
2022-09-27T04:48:51.562Z,98664.51
2022-09-27T04:51:23.562Z,98668.85
2022-09-27T04:53:56.759Z,98669.71
2022-09-27T04:56:31.291Z,98671.99
2022-09-27T04:59:08.311Z,98672.77
2022-09-27T05:01:42.933Z,98670.75
2022-09-27T05:04:23.855Z,98669.46
2022-09-27T05:06:57.383Z,98667.90
2022-09-27T05:09:40.767Z,98662.89
2022-09-27T05:12:14.096Z,98662.91
2022-09-27T05:14:50.026Z,98667.69
2022-09-27T05:17:41.927Z,98664.94
2022-09-27T05:20:29.012Z,98661.95
2022-09-27T05:23:08.478Z,98657.95
2022-09-27T05:25:40.575Z,98661.57
2022-09-27T05:28:12.590Z,98657.78
2022-09-27T05:30:45.764Z,98655.70
2022-09-27T05:33:22.397Z,98650.34
2022-09-27T05:35:58.244Z,98647.33
2022-09-27T05:38:33.855Z,98645.45
2022-09-27T05:41:06.266Z,98645.90
2022-09-27T05:43:39.681Z,98647.55
2022-09-27T05:46:11.740Z,98650.59
2022-09-27T05:48:43.819Z,98644.40
2022-09-27T05:51:15.976Z,98642.75
2022-09-27T05:53:48.072Z,98649.40
2022-09-27T05:56:26.266Z,98653.98
2022-09-27T05:59:21.003Z,98659.45
2022-09-27T06:02:22.298Z,98667.25
2022-09-27T06:04:57.126Z,98666.74
2022-09-27T06:07:49.721Z,98667.81
2022-09-27T06:10:33.583Z,98661.36
2022-09-27T06:13:08.365Z,98657.71
2022-09-27T06:15:46.485Z,98660.58
2022-09-27T06:18:19.131Z,98655.66
2022-09-27T06:20:53.825Z,98653.70
2022-09-27T06:23:26.358Z,98645.89
2022-09-27T06:26:05.056Z,98645.71
2022-09-27T06:28:47.300Z,98647.30
2022-09-27T06:31:19.854Z,98647.87
2022-09-27T06:33:54.074Z,98652.48
2022-09-27T06:36:26.041Z,98652.59
2022-09-27T06:39:01.621Z,98643.51
2022-09-27T06:41:38.076Z,98641.07
2022-09-27T06:44:21.974Z,98634.92
2022-09-27T06:47:16.725Z,98630.00
2022-09-27T06:49:53.433Z,98628.19
2022-09-27T06:52:25.557Z,98629.27
2022-09-27T06:54:57.419Z,98636.32
2022-09-27T06:57:47.067Z,98641.82
2022-09-27T07:00:26.783Z,98651.42
2022-09-27T07:03:18.037Z,98662.96
2022-09-27T07:06:24.228Z,98671.94
2022-09-27T07:09:06.725Z,98677.90
2022-09-27T07:11:38.749Z,98678.70
2022-09-27T07:14:12.082Z,98681.02
2022-09-27T07:16:43.961Z,98672.94
2022-09-27T07:19:18.340Z,98670.22
2022-09-27T07:21:53.767Z,98669.61
2022-09-27T07:24:26.002Z,98672.73
2022-09-27T07:26:58.857Z,98680.55
2022-09-27T07:29:32.082Z,98685.00
2022-09-27T07:32:05.527Z,98684.94
2022-09-27T07:34:37.458Z,98674.89
2022-09-27T07:37:09.833Z,98668.59
2022-09-27T07:39:44.741Z,98678.94
2022-09-27T07:42:18.523Z,98672.52
2022-09-27T07:44:53.754Z,98667.16
2022-09-27T07:47:55.010Z,98666.76
2022-09-27T07:50:49.223Z,98660.90
2022-09-27T07:53:41.339Z,98657.00
2022-09-27T07:56:36.157Z,98656.91
2022-09-27T07:59:09.917Z,98659.00
2022-09-27T08:01:42.095Z,98670.85
2022-09-27T08:04:15.666Z,98671.84
2022-09-27T08:06:47.683Z,98672.80
2022-09-27T08:09:20.008Z,98673.09
2022-09-27T08:11:52.031Z,98671.03
2022-09-27T08:14:24.422Z,98669.94
2022-09-27T08:16:57.053Z,98662.85
2022-09-27T08:19:42.594Z,98664.64
2022-09-27T08:22:50.116Z,98667.19
2022-09-27T08:25:31.663Z,98664.95
2022-09-27T08:28:10.433Z,98668.95
2022-09-27T08:30:47.175Z,98667.95
2022-09-27T08:33:19.752Z,98674.99
2022-09-27T08:35:52.016Z,98675.14
2022-09-27T08:38:23.946Z,98674.77
2022-09-27T08:40:58.783Z,98677.02
2022-09-27T08:43:42.069Z,98679.05
2022-09-27T08:46:31.723Z,98677.36
2022-09-27T08:49:11.157Z,98676.80
2022-09-27T08:51:44.788Z,98675.80
2022-09-27T08:54:21.456Z,98679.02
2022-09-27T08:56:57.254Z,98679.98
2022-09-27T08:59:32.933Z,98681.81
2022-09-27T09:02:06.480Z,98692.23
2022-09-27T09:04:43.392Z,98687.84
2022-09-27T09:07:32.526Z,98683.54
2022-09-27T09:10:40.083Z,98675.95
2022-09-27T09:13:23.649Z,98687.05
2022-09-27T09:16:15.923Z,98673.77
2022-09-27T09:19:09.308Z,98674.33
2022-09-27T09:21:55.832Z,98663.32
2022-09-27T09:24:38.614Z,98663.91
2022-09-27T09:27:17.413Z,98658.16
2022-09-27T09:30:05.521Z,98654.29
2022-09-27T09:32:54.124Z,98649.26
2022-09-27T09:35:33.977Z,98640.20
2022-09-27T09:38:12.392Z,98640.59
2022-09-27T09:40:48.723Z,98645.59
2022-09-27T09:43:26.782Z,98652.75
2022-09-27T09:46:06.720Z,98652.66
2022-09-27T09:48:44.632Z,98656.77
2022-09-27T09:51:22.794Z,98663.27
2022-09-27T09:53:59.997Z,98654.79
2022-09-27T09:56:42.506Z,98659.39
2022-09-27T09:59:20.270Z,98661.13
2022-09-27T10:02:00.318Z,98653.22
2022-09-27T10:04:34.160Z,98648.78
2022-09-27T10:07:07.398Z,98656.42
2022-09-27T10:09:40.207Z,98652.55
2022-09-27T10:12:32.512Z,98642.82
2022-09-27T10:15:07.505Z,98631.58
2022-09-27T10:17:42.841Z,98627.23
2022-09-27T10:20:27.072Z,98625.40
2022-09-27T10:23:05.444Z,98632.70
2022-09-27T10:25:53.445Z,98622.38
2022-09-27T10:28:43.433Z,98623.83
2022-09-27T10:31:18.598Z,98619.94
2022-09-27T10:34:01.849Z,98619.92
2022-09-27T10:36:38.811Z,98617.37
2022-09-27T10:39:24.332Z,98621.26
2022-09-27T10:41:56.533Z,98622.39
2022-09-27T10:44:40.318Z,98622.17
2022-09-27T10:47:31.831Z,98628.94
2022-09-27T10:50:38.755Z,98622.14
2022-09-27T10:53:23.344Z,98614.33
2022-09-27T10:56:15.760Z,98615.56
2022-09-27T10:58:48.521Z,98618.30
2022-09-27T11:01:20.852Z,98616.13
2022-09-27T11:04:24.592Z,98610.54
2022-09-27T11:07:10.349Z,98608.27
2022-09-27T11:09:50.710Z,98601.57
2022-09-27T11:12:25.241Z,98602.71
2022-09-27T11:15:00.315Z,98595.21
2022-09-27T11:17:42.122Z,98593.90
2022-09-27T11:20:34.196Z,98587.98
2022-09-27T11:23:29.280Z,98593.44
2022-09-27T11:26:28.289Z,98587.11
2022-09-27T11:29:02.917Z,98586.43
2022-09-27T11:32:19.463Z,98583.77
2022-09-27T11:35:05.597Z,98578.46
2022-09-27T11:37:51.792Z,98573.33
2022-09-27T11:40:35.022Z,98572.31
2022-09-27T11:43:23.469Z,98565.70
2022-09-27T11:46:16.533Z,98564.41
2022-09-27T11:49:07.875Z,98563.70
2022-09-27T11:51:59.967Z,98563.77
2022-09-27T11:54:47.751Z,98570.04
2022-09-27T11:57:28.850Z,98565.86
2022-09-27T12:00:22.477Z,98559.29
2022-09-27T12:03:34.407Z,98557.29
2022-09-27T12:06:14.491Z,98562.06
2022-09-27T12:08:58.575Z,98564.23
2022-09-27T12:11:35.940Z,98562.36
2022-09-27T12:14:39.411Z,98557.36
2022-09-27T12:17:17.871Z,98548.98
2022-09-27T12:19:56.578Z,98549.27
2022-09-27T12:22:58.208Z,98540.89
2022-09-27T12:25:43.930Z,98545.86
2022-09-27T12:28:28.518Z,98550.67
2022-09-27T12:31:32.023Z,98544.13
2022-09-27T12:34:19.961Z,98537.75
2022-09-27T12:37:00.402Z,98535.36
2022-09-27T12:39:42.580Z,98534.80
2022-09-27T12:42:28.886Z,98530.85
2022-09-27T12:45:05.287Z,98527.25
2022-09-27T12:47:56.711Z,98524.14
2022-09-27T12:50:36.340Z,98533.09
2022-09-27T12:53:19.038Z,98530.38
2022-09-27T12:56:17.363Z,98531.65
2022-09-27T12:59:10.783Z,98529.71
2022-09-27T13:02:04.287Z,98521.50
2022-09-27T13:04:56.660Z,98517.02
2022-09-27T13:07:43.724Z,98512.70
2022-09-27T13:10:41.334Z,98514.59
2022-09-27T13:13:26.593Z,98515.27
2022-09-27T13:16:01.986Z,98512.75
2022-09-27T13:18:55.938Z,98507.41
2022-09-27T13:21:59.693Z,98508.77
2022-09-27T13:24:51.758Z,98504.68
2022-09-27T13:27:43.919Z,98505.70
2022-09-27T13:30:50.495Z,98500.08
2022-09-27T13:33:43.322Z,98487.45
2022-09-27T13:36:30.723Z,98481.81
2022-09-27T13:39:23.357Z,98480.77
2022-09-27T13:42:30.586Z,98477.85
2022-09-27T13:45:21.208Z,98479.56
2022-09-27T13:47:57.006Z,98473.48
2022-09-27T13:50:47.170Z,98472.57
2022-09-27T13:53:29.734Z,98470.73
2022-09-27T13:56:02.494Z,98464.95
2022-09-27T13:58:50.371Z,98464.20
2022-09-27T14:01:45.226Z,98462.54
2022-09-27T14:04:22.177Z,98462.52
2022-09-27T14:07:00.227Z,98465.58
2022-09-27T14:09:36.991Z,98466.51
2022-09-27T14:12:21.260Z,98458.61
2022-09-27T14:14:55.464Z,98453.36
2022-09-27T14:17:28.154Z,98451.57
2022-09-27T14:20:00.105Z,98447.90
2022-09-27T14:22:35.145Z,98444.16
2022-09-27T14:25:20.470Z,98447.91
2022-09-27T14:27:54.745Z,98446.30
2022-09-27T14:30:28.910Z,98442.99
2022-09-27T14:36:50.814Z,98455.59
2022-09-27T14:39:29.094Z,98451.04
2022-09-27T14:42:01.809Z,98449.28
2022-09-27T14:44:34.125Z,98451.15
2022-09-27T14:47:18.375Z,98449.34
2022-09-27T14:49:52.592Z,98453.34
2022-09-27T14:52:28.626Z,98447.04
2022-09-27T14:55:03.207Z,98445.23
2022-09-27T14:57:37.558Z,98441.52
2022-09-27T15:00:21.883Z,98437.60
2022-09-27T15:02:56.674Z,98440.02
2022-09-27T15:05:32.489Z,98440.13
2022-09-27T15:08:07.214Z,98444.98
2022-09-27T15:10:40.120Z,98441.61
2022-09-27T15:13:18.740Z,98440.28
2022-09-27T15:15:51.425Z,98444.95
2022-09-27T15:18:45.326Z,98446.89
2022-09-27T15:21:29.239Z,98443.10
2022-09-27T15:24:02.714Z,98440.84
2022-09-27T15:26:42.511Z,98438.90
2022-09-27T15:29:24.008Z,98435.44
2022-09-27T15:32:04.289Z,98432.90
2022-09-27T15:34:38.111Z,98434.70
2022-09-27T15:37:25.161Z,98437.91
2022-09-27T15:40:01.654Z,98431.04
2022-09-27T15:42:58.468Z,98426.15
2022-09-27T15:45:35.298Z,98421.08
2022-09-27T15:48:17.123Z,98419.38
2022-09-27T15:50:51.026Z,98418.30
2022-09-27T15:53:46.120Z,98412.89
2022-09-27T15:56:18.312Z,98407.25
2022-09-27T15:58:50.337Z,98402.83
2022-09-27T16:01:23.232Z,98403.05
2022-09-27T16:03:55.130Z,98405.48
2022-09-27T16:06:29.170Z,98403.80
2022-09-27T16:09:01.179Z,98403.44
2022-09-27T16:11:33.118Z,98401.16
2022-09-27T16:14:05.268Z,98403.59
2022-09-27T16:16:37.670Z,98405.27
2022-09-27T16:19:09.710Z,98408.48
2022-09-27T16:21:42.899Z,98414.55
2022-09-27T16:24:14.780Z,98409.44
2022-09-27T16:26:47.559Z,98416.09
2022-09-27T16:29:19.733Z,98421.56
2022-09-27T16:31:53.673Z,98423.17
2022-09-27T16:34:26.242Z,98423.23
2022-09-27T16:37:01.645Z,98423.59
2022-09-27T16:39:36.102Z,98429.97
2022-09-27T16:42:08.594Z,98426.13
2022-09-27T16:44:40.530Z,98425.95
2022-09-27T16:47:12.400Z,98430.65
2022-09-27T16:50:01.947Z,98430.42
2022-09-27T16:52:34.702Z,98426.70
2022-09-27T16:55:07.685Z,98422.14
2022-09-27T16:57:39.736Z,98414.58
2022-09-27T17:00:14.149Z,98417.07
2022-09-27T17:02:48.526Z,98418.55
2022-09-27T17:05:22.860Z,98424.96
2022-09-27T17:07:55.178Z,98424.10
2022-09-27T17:10:27.604Z,98421.89
2022-09-27T17:13:01.643Z,98424.71
2022-09-27T17:15:34.025Z,98425.61
2022-09-27T17:18:06.006Z,98432.96
2022-09-27T17:20:38.251Z,98433.16
2022-09-27T17:23:10.637Z,98431.08
2022-09-27T17:25:42.689Z,98432.56
2022-09-27T17:28:14.588Z,98429.94
2022-09-27T17:30:46.431Z,98424.75
2022-09-27T17:33:20.701Z,98429.98
2022-09-27T17:36:02.212Z,98431.58
2022-09-27T17:38:34.180Z,98430.91
2022-09-27T17:41:08.688Z,98433.17
2022-09-27T17:43:50.194Z,98429.77
2022-09-27T17:46:26.313Z,98422.50
2022-09-27T17:49:16.122Z,98424.75
2022-09-27T17:51:51.014Z,98427.54
2022-09-27T17:54:26.278Z,98425.84
2022-09-27T17:56:58.443Z,98428.35
2022-09-27T17:59:31.274Z,98427.84
2022-09-27T18:02:03.187Z,98427.34
2022-09-27T18:04:35.276Z,98422.80
2022-09-27T18:07:07.096Z,98420.59
2022-09-27T18:09:39.017Z,98414.67
2022-09-27T18:12:11.216Z,98412.15
2022-09-27T18:14:43.192Z,98414.84
2022-09-27T18:17:16.769Z,98409.64
2022-09-27T18:19:48.617Z,98411.23
2022-09-27T18:22:20.648Z,98410.67
2022-09-27T18:24:52.606Z,98408.03
2022-09-27T18:27:24.522Z,98414.58
2022-09-27T18:29:56.382Z,98421.23
2022-09-27T18:32:28.672Z,98424.59
2022-09-27T18:35:00.531Z,98421.13
2022-09-27T18:37:34.605Z,98417.51
2022-09-27T18:40:07.604Z,98418.59
2022-09-27T18:42:39.424Z,98416.92
2022-09-27T18:45:12.081Z,98419.79
2022-09-27T18:47:43.987Z,98420.80
2022-09-27T18:50:16.009Z,98420.27
2022-09-27T18:52:47.854Z,98418.30
2022-09-27T18:55:24.622Z,98417.05
2022-09-27T18:57:57.317Z,98419.73
2022-09-27T19:00:29.430Z,98420.58
2022-09-27T19:03:01.420Z,98421.02
2022-09-27T19:05:35.051Z,98417.86
2022-09-27T19:08:06.915Z,98419.41
2022-09-27T19:10:38.867Z,98419.77
2022-09-27T19:13:10.855Z,98426.20
2022-09-27T19:15:43.159Z,98424.98
2022-09-27T19:18:15.132Z,98422.38
2022-09-27T19:20:47.202Z,98417.87
2022-09-27T19:23:23.864Z,98413.14
2022-09-27T19:25:58.275Z,98413.30
2022-09-27T19:28:34.126Z,98409.98
2022-09-27T19:31:09.645Z,98405.98
2022-09-27T19:33:42.101Z,98402.30
2022-09-27T19:36:16.735Z,98399.91
2022-09-27T19:38:49.365Z,98403.22
2022-09-27T19:41:21.499Z,98400.60
2022-09-27T19:43:55.328Z,98399.04
2022-09-27T19:46:28.310Z,98395.54
2022-09-27T19:49:01.518Z,98391.91
2022-09-27T19:51:34.160Z,98393.85
2022-09-27T19:54:06.474Z,98389.53
2022-09-27T19:56:38.358Z,98385.02
2022-09-27T19:59:10.322Z,98390.78
2022-09-27T20:01:43.734Z,98383.60
2022-09-27T20:04:16.374Z,98381.23
2022-09-27T20:06:49.589Z,98381.73
2022-09-27T20:09:22.257Z,98372.61
2022-09-27T20:11:54.686Z,98375.55
2022-09-27T20:14:27.219Z,98365.65
2022-09-27T20:16:59.664Z,98369.04
2022-09-27T20:19:31.498Z,98361.40
2022-09-27T20:22:03.329Z,98361.95
2022-09-27T20:24:35.793Z,98364.90
2022-09-27T20:27:07.777Z,98362.33
2022-09-27T20:29:39.592Z,98362.56
2022-09-27T20:32:28.287Z,98362.16
2022-09-27T20:35:01.672Z,98355.10
2022-09-27T20:37:34.536Z,98361.31
2022-09-27T20:40:07.754Z,98360.91
2022-09-27T20:42:39.672Z,98361.78
2022-09-27T20:45:12.306Z,98371.51
2022-09-27T20:47:44.202Z,98377.78
2022-09-27T20:50:16.166Z,98377.77
2022-09-27T20:52:47.963Z,98371.52
2022-09-27T20:55:20.142Z,98368.75
2022-09-27T20:57:57.699Z,98378.23
2022-09-27T21:00:30.019Z,98376.21
2022-09-27T21:03:02.125Z,98380.48
2022-09-27T21:05:34.162Z,98375.00
2022-09-27T21:08:05.981Z,98375.66
2022-09-27T21:10:38.234Z,98373.27
2022-09-27T21:13:10.137Z,98386.75
2022-09-27T21:15:41.991Z,98385.09
2022-09-27T21:18:14.114Z,98374.98
2022-09-27T21:20:45.920Z,98374.08
2022-09-27T21:23:17.740Z,98377.08
2022-09-27T21:25:51.614Z,98379.38
2022-09-27T21:28:23.560Z,98376.17
2022-09-27T21:30:55.547Z,98370.02
2022-09-27T21:33:27.489Z,98365.36
2022-09-27T21:35:59.324Z,98358.35
2022-09-27T21:38:33.262Z,98356.87
2022-09-27T21:41:07.155Z,98357.64
2022-09-27T21:43:40.830Z,98352.88
2022-09-27T21:46:14.886Z,98347.29
2022-09-27T21:48:49.059Z,98346.45
2022-09-27T21:51:22.636Z,98343.41
2022-09-27T21:53:57.020Z,98341.94
2022-09-27T21:56:30.353Z,98338.19
2022-09-27T21:59:02.700Z,98333.79
2022-09-27T22:01:35.847Z,98323.79
2022-09-27T22:04:08.893Z,98321.66
2022-09-27T22:06:41.712Z,98318.97
2022-09-27T22:09:17.558Z,98315.61
2022-09-27T22:11:50.077Z,98314.82
2022-09-27T22:14:22.259Z,98309.38
2022-09-27T22:16:54.028Z,98308.86
2022-09-27T22:19:25.813Z,98308.52
2022-09-27T22:21:57.617Z,98305.56
2022-09-27T22:24:29.785Z,98303.98
2022-09-27T22:27:01.731Z,98299.92
2022-09-27T22:29:34.113Z,98301.80
2022-09-27T22:32:06.219Z,98298.76
2022-09-27T22:34:38.041Z,98294.71
2022-09-27T22:37:10.411Z,98292.38
2022-09-27T22:39:42.223Z,98294.45
2022-09-27T22:42:14.195Z,98291.67
2022-09-27T22:44:46.003Z,98292.14
2022-09-27T22:47:17.944Z,98288.67
2022-09-27T22:49:49.812Z,98287.09
2022-09-27T22:52:21.740Z,98284.21
2022-09-27T22:54:53.763Z,98280.14
2022-09-27T22:57:26.434Z,98275.95
2022-09-27T22:59:58.446Z,98278.08
2022-09-27T23:02:30.336Z,98278.81
2022-09-27T23:05:02.146Z,98277.98
2022-09-27T23:07:34.067Z,98278.48
2022-09-27T23:10:07.181Z,98275.33
2022-09-27T23:12:39.070Z,98274.43
2022-09-27T23:15:13.983Z,98271.26
2022-09-27T23:17:45.761Z,98274.54
2022-09-27T23:20:18.612Z,98273.95
2022-09-27T23:22:50.608Z,98273.92
2022-09-27T23:25:22.720Z,98274.32
2022-09-27T23:27:55.006Z,98268.60
2022-09-27T23:30:29.213Z,98267.75
2022-09-27T23:33:01.093Z,98266.53
2022-09-27T23:35:33.989Z,98266.41
2022-09-27T23:38:06.873Z,98263.92
2022-09-27T23:40:39.973Z,98260.70
2022-09-27T23:43:11.912Z,98260.69
2022-09-27T23:45:44.039Z,98258.13
2022-09-27T23:48:15.925Z,98261.06
2022-09-27T23:50:48.333Z,98259.31
2022-09-27T23:53:20.545Z,98259.90
2022-09-27T23:56:02.821Z,98258.69
2022-09-27T23:58:37.576Z,98253.77
